createdAt,value
2023-03-29T00:02:13.271Z,1.77
2023-03-29T00:04:40.234Z,2.10
2023-03-29T00:07:09.710Z,2.10
2023-03-29T00:09:36.591Z,2.03
2023-03-29T00:12:03.941Z,1.63
2023-03-29T00:14:31.183Z,1.63
2023-03-29T00:16:58.535Z,1.70
2023-03-29T00:19:25.636Z,1.77
2023-03-29T00:21:52.639Z,1.40
2023-03-29T00:24:22.128Z,1.60
2023-03-29T00:26:49.004Z,1.53
2023-03-29T00:29:16.177Z,1.70
2023-03-29T00:31:43.198Z,1.57
2023-03-29T00:34:10.452Z,1.40
2023-03-29T00:36:37.357Z,1.50
2023-03-29T00:39:04.271Z,1.30
2023-03-29T00:41:33.737Z,1.40
2023-03-29T00:44:02.334Z,1.30
2023-03-29T00:46:31.287Z,1.50
2023-03-29T00:49:02.868Z,1.63
2023-03-29T00:51:32.777Z,1.60
2023-03-29T00:54:03.501Z,1.50
2023-03-29T00:56:36.916Z,1.80
2023-03-29T00:59:06.812Z,1.60
2023-03-29T01:01:39.843Z,1.60
2023-03-29T01:04:11.550Z,1.43
2023-03-29T01:06:41.563Z,1.60
2023-03-29T01:09:12.625Z,1.70
2023-03-29T01:11:46.611Z,1.73
2023-03-29T01:14:19.272Z,1.50
2023-03-29T01:16:46.369Z,1.40
2023-03-29T01:19:17.545Z,1.40
2023-03-29T01:21:49.296Z,1.50
2023-03-29T01:24:44.830Z,1.40
2023-03-29T01:27:20.987Z,1.50
2023-03-29T01:29:52.697Z,1.30
2023-03-29T01:32:23.352Z,1.30
2023-03-29T01:34:55.392Z,1.30
2023-03-29T01:37:26.065Z,1.20
2023-03-29T01:39:53.435Z,1.50
2023-03-29T01:42:32.495Z,1.40
2023-03-29T01:45:10.392Z,1.50
2023-03-29T01:47:44.622Z,1.53
2023-03-29T01:50:17.514Z,1.43
2023-03-29T01:52:50.394Z,1.40
2023-03-29T01:55:22.688Z,1.37
2023-03-29T01:57:51.613Z,1.40
2023-03-29T02:00:24.339Z,1.40
2023-03-29T02:02:54.630Z,1.30
2023-03-29T02:05:23.623Z,1.30
2023-03-29T02:07:51.624Z,1.20
2023-03-29T02:10:19.983Z,1.03
2023-03-29T02:12:46.927Z,1.13
2023-03-29T02:15:16.406Z,1.10
2023-03-29T02:17:46.833Z,1.37
2023-03-29T02:20:17.560Z,1.33
2023-03-29T02:22:49.546Z,0.90
2023-03-29T02:25:17.366Z,1.00
2023-03-29T02:27:44.700Z,1.20
2023-03-29T02:30:13.676Z,1.00
2023-03-29T02:32:52.283Z,0.93
2023-03-29T02:35:25.356Z,1.10
2023-03-29T02:37:55.953Z,0.90
2023-03-29T02:40:24.849Z,1.10
2023-03-29T02:42:54.420Z,1.03
2023-03-29T02:45:23.014Z,1.07
2023-03-29T02:47:56.402Z,1.10
2023-03-29T02:50:24.657Z,0.90
2023-03-29T02:52:55.028Z,1.00
2023-03-29T02:55:25.304Z,0.80
2023-03-29T02:57:52.252Z,1.00
2023-03-29T03:00:19.912Z,1.10
2023-03-29T03:02:47.947Z,0.90
2023-03-29T03:05:17.670Z,1.00
2023-03-29T03:07:45.123Z,0.93
2023-03-29T03:10:12.212Z,0.97
2023-03-29T03:12:39.134Z,1.00
2023-03-29T03:15:07.406Z,1.10
2023-03-29T03:17:34.303Z,0.80
2023-03-29T03:20:01.205Z,1.23
2023-03-29T03:22:30.699Z,1.33
2023-03-29T03:24:57.575Z,1.00
2023-03-29T03:27:24.502Z,1.00
2023-03-29T03:29:51.369Z,1.50
2023-03-29T03:32:18.379Z,1.60
2023-03-29T03:34:45.229Z,1.47
2023-03-29T03:37:12.254Z,1.47
2023-03-29T03:39:41.840Z,1.40
2023-03-29T03:42:08.757Z,1.40
2023-03-29T03:44:35.772Z,1.20
2023-03-29T03:47:02.630Z,1.50
2023-03-29T03:49:29.619Z,2.20
2023-03-29T03:51:56.462Z,2.30
2023-03-29T03:54:23.921Z,2.40
2023-03-29T03:56:53.417Z,2.20
2023-03-29T03:59:20.313Z,1.93
2023-03-29T04:01:47.202Z,2.27
2023-03-29T04:04:14.514Z,2.00
2023-03-29T04:06:43.532Z,1.90
2023-03-29T04:09:11.043Z,1.90
2023-03-29T04:11:38.032Z,1.60
2023-03-29T04:14:07.533Z,1.60
2023-03-29T04:16:34.405Z,1.27
2023-03-29T04:19:01.332Z,1.00
2023-03-29T04:21:28.261Z,1.13
2023-03-29T04:23:55.127Z,1.20
2023-03-29T04:26:22.102Z,1.00
2023-03-29T04:28:49.057Z,0.80
2023-03-29T04:31:18.584Z,1.03
2023-03-29T04:33:45.567Z,1.27
2023-03-29T04:36:12.505Z,1.00
2023-03-29T04:38:39.434Z,1.20
2023-03-29T04:41:06.345Z,1.20
2023-03-29T04:43:33.207Z,1.30
2023-03-29T04:46:00.280Z,1.50
2023-03-29T04:48:29.775Z,1.40
2023-03-29T04:50:56.674Z,1.37
2023-03-29T04:53:23.534Z,1.43
2023-03-29T04:55:50.594Z,1.63
2023-03-29T04:58:18.204Z,2.17
2023-03-29T05:00:46.384Z,2.00
2023-03-29T05:03:13.614Z,2.20
2023-03-29T05:05:43.154Z,1.90
2023-03-29T05:08:10.088Z,1.80
2023-03-29T05:10:37.156Z,1.40
2023-03-29T05:13:04.087Z,1.40
2023-03-29T05:15:30.973Z,1.57
2023-03-29T05:17:57.956Z,1.27
2023-03-29T05:20:24.894Z,1.13
2023-03-29T05:22:54.414Z,1.40
2023-03-29T05:25:21.321Z,1.30
2023-03-29T05:27:48.188Z,1.37
2023-03-29T05:30:15.691Z,1.20
2023-03-29T05:32:42.728Z,1.30
2023-03-29T05:35:10.072Z,1.20
2023-03-29T05:37:37.014Z,1.30
2023-03-29T05:40:08.095Z,1.50
2023-03-29T05:42:35.006Z,1.30
2023-03-29T05:45:01.885Z,1.50
2023-03-29T05:47:28.837Z,1.40
2023-03-29T05:49:55.777Z,1.40
2023-03-29T05:52:22.674Z,1.40
2023-03-29T05:54:49.536Z,1.40
2023-03-29T05:57:19.184Z,1.10
2023-03-29T05:59:46.125Z,1.40
2023-03-29T06:02:13.022Z,1.80
2023-03-29T06:04:40.033Z,1.50
2023-03-29T06:07:07.052Z,1.63
2023-03-29T06:09:34.024Z,1.70
2023-03-29T06:12:01.032Z,1.77
2023-03-29T06:14:30.738Z,1.80
2023-03-29T06:16:57.666Z,1.80
2023-03-29T06:19:24.784Z,1.70
2023-03-29T06:21:51.789Z,1.80
2023-03-29T06:24:18.756Z,1.53
2023-03-29T06:26:45.638Z,2.20
2023-03-29T06:29:12.538Z,1.67
2023-03-29T06:31:42.091Z,1.67
2023-03-29T06:34:09.077Z,1.70
2023-03-29T06:36:35.942Z,1.77
2023-03-29T06:39:02.855Z,1.53
2023-03-29T06:41:29.744Z,1.60
2023-03-29T06:43:56.624Z,1.57
2023-03-29T06:46:23.557Z,1.60
2023-03-29T06:48:53.055Z,1.70
2023-03-29T06:51:21.915Z,1.70
2023-03-29T06:53:50.147Z,1.67
2023-03-29T06:56:17.073Z,2.10
2023-03-29T06:58:43.948Z,1.60
2023-03-29T07:01:10.847Z,1.70
2023-03-29T07:03:37.799Z,1.73
2023-03-29T07:06:07.633Z,1.80
2023-03-29T07:08:34.485Z,1.73
2023-03-29T07:11:01.589Z,1.90
2023-03-29T07:13:28.664Z,1.87
2023-03-29T07:15:55.527Z,2.23
2023-03-29T07:18:22.579Z,1.80
2023-03-29T07:20:49.450Z,1.90
2023-03-29T07:23:18.956Z,2.00
2023-03-29T07:25:45.945Z,1.73
2023-03-29T07:28:12.932Z,1.80
2023-03-29T07:30:39.803Z,2.00
2023-03-29T07:33:06.723Z,1.70
2023-03-29T07:35:33.799Z,1.73
2023-03-29T07:38:00.771Z,1.40
2023-03-29T07:40:30.234Z,1.50
2023-03-29T07:42:57.448Z,1.47
2023-03-29T07:45:26.572Z,1.87
2023-03-29T07:47:56.540Z,1.70
2023-03-29T07:50:24.036Z,1.57
2023-03-29T07:52:51.020Z,1.80
2023-03-29T07:55:18.119Z,1.57
2023-03-29T07:57:49.268Z,1.77
2023-03-29T08:00:17.432Z,1.67
2023-03-29T08:02:45.739Z,1.77
2023-03-29T08:05:14.161Z,1.87
2023-03-29T08:07:42.749Z,1.70
2023-03-29T08:10:11.973Z,1.50
2023-03-29T08:12:39.060Z,1.50
2023-03-29T08:15:10.141Z,1.30
2023-03-29T08:17:37.709Z,1.60
2023-03-29T08:20:07.237Z,1.33
2023-03-29T08:22:34.562Z,1.90
2023-03-29T08:25:01.606Z,1.30
2023-03-29T08:27:28.756Z,1.30
2023-03-29T08:29:55.628Z,1.40
2023-03-29T08:32:25.340Z,1.40
2023-03-29T08:34:52.291Z,1.60
2023-03-29T08:37:19.216Z,1.40
2023-03-29T08:39:46.331Z,1.57
2023-03-29T08:42:45.427Z,1.30
2023-03-29T08:45:19.980Z,2.30
2023-03-29T08:47:57.289Z,1.80
2023-03-29T08:50:31.462Z,1.60
2023-03-29T08:53:02.383Z,1.37
2023-03-29T08:55:33.320Z,1.80
2023-03-29T08:58:02.668Z,1.60
2023-03-29T09:00:36.179Z,1.73
2023-03-29T09:03:11.147Z,1.73
2023-03-29T09:05:42.034Z,1.57
2023-03-29T09:08:12.904Z,1.70
2023-03-29T09:10:44.274Z,1.63
2023-03-29T09:13:26.319Z,1.57
2023-03-29T09:15:57.100Z,1.60
2023-03-29T09:18:37.272Z,1.40
2023-03-29T09:21:13.335Z,1.37
2023-03-29T09:24:13.950Z,1.47
2023-03-29T09:26:46.343Z,1.40
2023-03-29T09:29:28.840Z,1.73
2023-03-29T09:31:56.488Z,1.80
2023-03-29T09:34:31.002Z,2.20
2023-03-29T09:37:03.372Z,2.20
2023-03-29T09:39:30.296Z,1.90
2023-03-29T09:42:00.798Z,1.80
2023-03-29T09:44:31.810Z,1.63
2023-03-29T09:47:02.815Z,1.60
2023-03-29T09:49:36.442Z,1.50
2023-03-29T09:52:11.101Z,3.80
2023-03-29T09:54:38.010Z,2.80
2023-03-29T09:57:04.998Z,2.30
2023-03-29T09:59:31.997Z,1.93
2023-03-29T10:02:06.577Z,1.60
2023-03-29T10:04:36.199Z,1.83
2023-03-29T10:07:04.059Z,1.97
2023-03-29T10:09:32.111Z,2.17
2023-03-29T10:12:01.035Z,2.07
2023-03-29T10:14:33.886Z,2.07
2023-03-29T10:17:01.038Z,1.57
2023-03-29T10:19:30.424Z,1.80
2023-03-29T10:22:02.192Z,1.70
2023-03-29T10:24:29.038Z,1.87
2023-03-29T10:26:58.457Z,2.40
2023-03-29T10:29:26.853Z,1.77
2023-03-29T10:31:54.461Z,1.77
2023-03-29T10:34:23.007Z,1.90
2023-03-29T10:36:55.687Z,2.60
2023-03-29T10:39:28.503Z,2.03
2023-03-29T10:41:55.983Z,2.20
2023-03-29T10:44:30.899Z,1.90
2023-03-29T10:47:09.154Z,4.50
2023-03-29T10:49:40.983Z,2.47
2023-03-29T10:52:07.925Z,1.80
2023-03-29T10:54:37.500Z,1.60
2023-03-29T10:57:06.923Z,1.40
2023-03-29T10:59:45.340Z,1.57
2023-03-29T11:02:42.573Z,1.60
2023-03-29T11:05:18.991Z,1.40
2023-03-29T11:08:00.122Z,1.40
2023-03-29T11:10:40.413Z,1.50
2023-03-29T11:13:15.037Z,1.50
2023-03-29T11:15:52.496Z,1.70
2023-03-29T11:18:42.827Z,1.50
2023-03-29T11:21:19.294Z,1.67
2023-03-29T11:23:54.537Z,1.40
2023-03-29T11:26:25.935Z,1.57
2023-03-29T11:28:55.110Z,1.60
2023-03-29T11:31:34.828Z,1.43
2023-03-29T11:34:14.696Z,1.33
2023-03-29T11:36:51.986Z,1.13
2023-03-29T11:39:30.387Z,1.50
2023-03-29T11:42:07.096Z,1.13
2023-03-29T11:44:35.927Z,1.30
2023-03-29T11:47:06.335Z,1.30
2023-03-29T11:49:38.270Z,1.40
2023-03-29T11:52:12.804Z,1.20
2023-03-29T11:54:43.639Z,1.30
2023-03-29T11:57:20.613Z,1.40
2023-03-29T11:59:53.061Z,1.40
2023-03-29T12:02:24.424Z,1.50
2023-03-29T12:04:54.942Z,1.00
2023-03-29T12:07:29.251Z,1.20
2023-03-29T12:10:01.640Z,1.23
2023-03-29T12:12:40.625Z,1.50
2023-03-29T12:15:15.509Z,1.30
2023-03-29T12:17:46.896Z,1.27
2023-03-29T12:20:19.492Z,1.40
2023-03-29T12:22:48.031Z,1.47
2023-03-29T12:25:19.193Z,1.20
2023-03-29T12:27:59.665Z,1.27
2023-03-29T12:30:39.068Z,1.23
2023-03-29T12:33:34.263Z,1.40
2023-03-29T12:36:14.805Z,1.07
2023-03-29T12:38:43.925Z,1.40
2023-03-29T12:41:16.614Z,1.60
2023-03-29T12:43:47.008Z,1.20
2023-03-29T12:46:17.778Z,1.40
2023-03-29T12:48:47.807Z,1.43
2023-03-29T12:51:16.910Z,1.30
2023-03-29T12:53:46.231Z,1.60
2023-03-29T12:56:16.577Z,1.40
2023-03-29T12:59:04.748Z,1.33
2023-03-29T13:01:33.289Z,1.60
2023-03-29T13:04:19.010Z,2.07
2023-03-29T13:07:12.247Z,1.60
2023-03-29T13:09:49.351Z,1.30
2023-03-29T13:12:24.730Z,1.60
2023-03-29T13:14:56.178Z,1.47
2023-03-29T13:17:27.986Z,1.67
2023-03-29T13:20:11.479Z,1.60
2023-03-29T13:22:48.273Z,1.43
2023-03-29T13:25:32.696Z,1.40
2023-03-29T13:28:06.263Z,1.60
2023-03-29T13:30:46.866Z,1.30
2023-03-29T13:33:53.030Z,2.20
2023-03-29T13:36:34.141Z,1.50
2023-03-29T13:39:03.835Z,2.27
2023-03-29T13:41:43.821Z,2.87
2023-03-29T13:44:25.509Z,2.17
2023-03-29T13:47:12.453Z,1.90
2023-03-29T13:49:41.892Z,2.40
2023-03-29T13:52:15.047Z,2.17
2023-03-29T13:54:46.016Z,1.83
2023-03-29T13:57:18.890Z,1.70
2023-03-29T13:59:52.298Z,1.37
2023-03-29T14:02:32.592Z,3.00
2023-03-29T14:05:01.836Z,2.00
2023-03-29T14:07:31.937Z,1.80
2023-03-29T14:09:59.282Z,1.47
2023-03-29T14:12:30.611Z,1.80
2023-03-29T14:15:01.429Z,1.90
2023-03-29T14:17:31.145Z,1.50
2023-03-29T14:20:00.376Z,1.90
2023-03-29T14:22:32.593Z,1.90
2023-03-29T14:25:05.148Z,2.20
2023-03-29T14:27:32.235Z,2.63
2023-03-29T14:29:59.764Z,2.17
2023-03-29T14:32:32.415Z,3.17
2023-03-29T14:35:00.772Z,3.30
2023-03-29T14:37:28.793Z,2.97
2023-03-29T14:39:56.690Z,3.40
2023-03-29T14:42:25.850Z,2.27
2023-03-29T14:44:58.284Z,2.20
2023-03-29T14:47:27.699Z,2.07
2023-03-29T14:49:58.377Z,2.33
2023-03-29T14:52:27.088Z,2.80
2023-03-29T14:54:55.898Z,2.30
2023-03-29T14:57:25.134Z,1.90
2023-03-29T14:59:54.014Z,1.77
2023-03-29T15:02:26.259Z,1.80
2023-03-29T15:05:01.004Z,1.67
2023-03-29T15:07:28.283Z,2.47
2023-03-29T15:09:56.552Z,2.97
2023-03-29T15:12:23.792Z,2.90
2023-03-29T15:14:52.810Z,3.30
2023-03-29T15:17:42.663Z,2.60
2023-03-29T15:20:22.609Z,2.77
2023-03-29T15:22:56.102Z,2.13
2023-03-29T15:25:26.267Z,1.57
2023-03-29T15:27:56.202Z,2.00
2023-03-29T15:30:32.593Z,3.63
2023-03-29T15:33:08.997Z,2.37
2023-03-29T15:35:38.641Z,2.30
2023-03-29T15:38:05.528Z,2.43
2023-03-29T15:40:32.631Z,1.80
2023-03-29T15:42:59.562Z,1.90
2023-03-29T15:45:26.437Z,1.50
2023-03-29T15:47:53.379Z,1.80
2023-03-29T15:50:20.294Z,1.63
2023-03-29T15:52:49.801Z,2.50
2023-03-29T15:55:16.854Z,2.03
2023-03-29T15:57:48.126Z,1.90
2023-03-29T16:00:17.182Z,3.23
2023-03-29T16:02:44.132Z,2.20
2023-03-29T16:05:11.601Z,1.83
2023-03-29T16:07:38.516Z,3.10
2023-03-29T16:10:08.929Z,10.10
2023-03-29T16:12:35.914Z,5.80
2023-03-29T16:15:08.512Z,3.47
2023-03-29T16:17:35.569Z,2.57
2023-03-29T16:20:02.597Z,3.27
2023-03-29T16:22:29.530Z,4.67
2023-03-29T16:24:56.613Z,4.37
2023-03-29T16:27:26.106Z,13.30
2023-03-29T16:29:53.036Z,19.67
2023-03-29T16:32:20.108Z,7.80
2023-03-29T16:34:47.207Z,8.63
2023-03-29T16:37:14.089Z,2.80
2023-03-29T16:39:40.963Z,2.30
2023-03-29T16:42:09.856Z,1.80
2023-03-29T16:44:39.369Z,1.70
2023-03-29T16:47:06.279Z,1.87
2023-03-29T16:49:33.172Z,1.67
2023-03-29T16:52:00.074Z,1.60
2023-03-29T16:54:26.959Z,1.70
2023-03-29T16:56:53.969Z,1.70
2023-03-29T16:59:20.977Z,1.50
2023-03-29T17:01:50.662Z,1.70
2023-03-29T17:04:17.742Z,1.50
2023-03-29T17:06:44.760Z,2.00
2023-03-29T17:09:11.655Z,1.53
2023-03-29T17:11:38.644Z,1.50
2023-03-29T17:14:05.580Z,1.43
2023-03-29T17:16:32.544Z,1.57
2023-03-29T17:19:02.175Z,1.43
2023-03-29T17:21:29.343Z,1.50
2023-03-29T17:23:56.389Z,1.30
2023-03-29T17:26:23.387Z,1.27
2023-03-29T17:28:50.325Z,1.53
2023-03-29T17:31:17.276Z,1.93
2023-03-29T17:33:44.251Z,2.10
2023-03-29T17:36:13.974Z,2.67
2023-03-29T17:38:40.915Z,2.53
2023-03-29T17:41:07.871Z,2.33
2023-03-29T17:43:34.774Z,2.70
2023-03-29T17:46:02.077Z,2.47
2023-03-29T17:48:29.170Z,2.57
2023-03-29T17:50:56.147Z,2.20
2023-03-29T17:53:25.851Z,2.30
2023-03-29T17:55:52.789Z,1.67
2023-03-29T17:58:19.809Z,2.07
2023-03-29T18:00:46.773Z,1.70
2023-03-29T18:03:14.017Z,1.63
2023-03-29T18:05:40.945Z,1.80
2023-03-29T18:08:07.998Z,1.70
2023-03-29T18:10:37.564Z,3.70
2023-03-29T18:13:04.481Z,10.47
2023-03-29T18:15:31.403Z,6.33
2023-03-29T18:17:58.365Z,3.57
2023-03-29T18:20:25.288Z,2.70
2023-03-29T18:22:52.158Z,2.17
2023-03-29T18:25:19.072Z,2.00
2023-03-29T18:27:48.570Z,1.90
2023-03-29T18:30:15.857Z,1.77
2023-03-29T18:32:43.105Z,2.30
2023-03-29T18:35:10.647Z,1.60
2023-03-29T18:37:37.556Z,1.40
2023-03-29T18:40:05.281Z,1.60
2023-03-29T18:42:32.181Z,1.50
2023-03-29T18:45:01.773Z,1.53
2023-03-29T18:47:28.684Z,2.07
2023-03-29T18:49:55.608Z,2.53
2023-03-29T18:52:22.479Z,2.07
2023-03-29T18:54:49.413Z,1.63
2023-03-29T18:57:16.350Z,2.00
2023-03-29T18:59:43.258Z,2.27
2023-03-29T19:02:12.807Z,2.73
2023-03-29T19:04:39.738Z,2.60
2023-03-29T19:07:06.723Z,2.63
2023-03-29T19:09:33.633Z,2.43
2023-03-29T19:12:00.479Z,2.43
2023-03-29T19:14:27.686Z,2.50
2023-03-29T19:16:54.799Z,2.23
2023-03-29T19:19:24.508Z,2.67
2023-03-29T19:21:51.381Z,2.10
2023-03-29T19:24:18.256Z,2.10
2023-03-29T19:26:45.364Z,1.80
2023-03-29T19:29:12.270Z,1.60
2023-03-29T19:31:39.272Z,1.50
2023-03-29T19:34:06.967Z,1.60
2023-03-29T19:36:36.903Z,1.30
2023-03-29T19:39:04.010Z,1.50
2023-03-29T19:41:31.086Z,1.60
2023-03-29T19:43:57.979Z,1.50
2023-03-29T19:46:24.941Z,1.70
2023-03-29T19:48:51.868Z,1.80
2023-03-29T19:51:18.858Z,1.77
2023-03-29T19:53:48.402Z,1.60
2023-03-29T19:56:15.345Z,1.80
2023-03-29T19:58:42.410Z,1.70
2023-03-29T20:01:09.299Z,1.60
2023-03-29T20:03:36.366Z,1.40
2023-03-29T20:06:03.935Z,1.50
2023-03-29T20:08:30.889Z,1.60
2023-03-29T20:11:04.060Z,1.50
2023-03-29T20:13:38.364Z,1.47
2023-03-29T20:16:07.038Z,1.47
2023-03-29T20:18:33.970Z,1.20
2023-03-29T20:21:01.291Z,1.40
2023-03-29T20:23:28.472Z,1.50
2023-03-29T20:25:55.364Z,1.20
2023-03-29T20:28:24.923Z,1.53
2023-03-29T20:30:52.650Z,1.33
2023-03-29T20:33:20.449Z,1.50
2023-03-29T20:35:48.070Z,1.40
2023-03-29T20:38:15.364Z,1.50
2023-03-29T20:40:42.487Z,1.47
2023-03-29T20:43:09.445Z,1.40
2023-03-29T20:45:51.626Z,1.10
2023-03-29T20:48:20.110Z,1.27
2023-03-29T20:50:47.079Z,1.40
2023-03-29T20:53:14.302Z,1.30
2023-03-29T20:55:41.202Z,1.30
2023-03-29T20:58:08.534Z,1.90
2023-03-29T21:00:38.357Z,1.27
2023-03-29T21:03:05.419Z,1.40
2023-03-29T21:05:33.254Z,1.20
2023-03-29T21:08:00.815Z,1.30
2023-03-29T21:10:27.766Z,1.30
2023-03-29T21:12:55.342Z,1.53
2023-03-29T21:15:22.224Z,1.30
2023-03-29T21:17:51.767Z,1.20
2023-03-29T21:20:19.016Z,1.20
2023-03-29T21:22:45.894Z,1.20
2023-03-29T21:25:14.290Z,1.40
2023-03-29T21:27:41.286Z,1.37
2023-03-29T21:30:09.044Z,1.10
2023-03-29T21:32:36.095Z,1.30
2023-03-29T21:35:06.660Z,1.10
2023-03-29T21:37:33.564Z,1.13
2023-03-29T21:40:00.441Z,1.30
2023-03-29T21:42:27.318Z,1.23
2023-03-29T21:44:54.213Z,1.50
2023-03-29T21:47:21.070Z,1.30
2023-03-29T21:49:47.943Z,1.33
2023-03-29T21:52:17.440Z,1.50
2023-03-29T21:54:44.349Z,1.30
2023-03-29T21:57:11.215Z,1.17
2023-03-29T21:59:38.118Z,1.40
2023-03-29T22:02:05.110Z,1.50
2023-03-29T22:04:37.189Z,1.57
2023-03-29T22:07:05.176Z,1.37
2023-03-29T22:09:35.349Z,1.60
2023-03-29T22:12:02.837Z,1.53
2023-03-29T22:14:31.568Z,1.50
2023-03-29T22:16:58.561Z,1.70
2023-03-29T22:19:25.543Z,1.80
2023-03-29T22:21:52.492Z,1.67
2023-03-29T22:24:19.401Z,1.67
2023-03-29T22:26:49.095Z,1.43
2023-03-29T22:29:15.981Z,1.17
2023-03-29T22:31:42.881Z,1.20
2023-03-29T22:34:09.804Z,1.30
2023-03-29T22:36:37.004Z,1.40
2023-03-29T22:39:05.014Z,1.20
2023-03-29T22:41:31.902Z,1.30
2023-03-29T22:44:01.381Z,1.17
2023-03-29T22:46:28.498Z,0.90
2023-03-29T22:48:55.541Z,1.23
2023-03-29T22:51:22.538Z,1.00
2023-03-29T22:53:49.504Z,1.23
2023-03-29T22:56:16.851Z,1.27
2023-03-29T22:58:44.285Z,1.20
2023-03-29T23:01:14.051Z,1.37
2023-03-29T23:03:40.928Z,1.17
2023-03-29T23:06:08.093Z,1.33
2023-03-29T23:08:35.080Z,1.63
2023-03-29T23:11:04.178Z,1.27
2023-03-29T23:13:31.820Z,1.47
2023-03-29T23:16:00.288Z,1.50
2023-03-29T23:18:31.782Z,1.30
2023-03-29T23:20:58.970Z,1.10
2023-03-29T23:23:27.073Z,1.23
2023-03-29T23:25:55.008Z,1.47
2023-03-29T23:28:24.161Z,1.17
2023-03-29T23:30:55.340Z,1.40
2023-03-29T23:33:22.534Z,1.20
2023-03-29T23:35:52.228Z,1.57
2023-03-29T23:38:19.425Z,1.30
2023-03-29T23:40:53.086Z,1.53
2023-03-29T23:43:19.947Z,1.20
2023-03-29T23:45:46.867Z,1.30
2023-03-29T23:48:13.752Z,1.43
2023-03-29T23:50:40.649Z,1.30
2023-03-29T23:53:10.103Z,1.20
2023-03-29T23:55:36.978Z,1.60
2023-03-29T23:58:04.104Z,1.30
